Aviation Digital Data Service (ADDS)

Output produced by METARs form (2021 UTC 25 April 2018)
found at http://aviationweather.gov/adds/metars/
 
KBTR 251953Z 25005KT 10SM CLR 27/12 A2999 RMK AO2 SLP153 T02670117